createdAt,value
2022-09-23T00:00:59.763Z,76.80
2022-09-23T00:03:28.683Z,76.94
2022-09-23T00:06:00.384Z,77.04
2022-09-23T00:08:27.159Z,76.80
2022-09-23T00:10:53.787Z,76.75
2022-09-23T00:13:20.153Z,76.70
2022-09-23T00:15:46.940Z,76.21
2022-09-23T00:18:13.461Z,76.39
2022-09-23T00:20:40.439Z,76.33
2022-09-23T00:23:07.066Z,76.52
2022-09-23T00:25:33.759Z,76.79
2022-09-23T00:28:00.401Z,76.23
2022-09-23T00:30:27.363Z,76.75
2022-09-23T00:32:53.828Z,76.95
2022-09-23T00:35:20.389Z,76.58
2022-09-23T00:37:46.957Z,76.50
2022-09-23T00:40:13.599Z,77.15
2022-09-23T00:42:48.797Z,77.29
2022-09-23T00:45:16.581Z,76.87
2022-09-23T00:47:51.211Z,77.66
2022-09-23T00:50:30.348Z,77.82
2022-09-23T00:52:59.431Z,77.50
2022-09-23T00:55:30.315Z,77.89
2022-09-23T00:57:59.372Z,77.51
2022-09-23T01:00:25.926Z,77.82
2022-09-23T01:02:52.514Z,77.04
2022-09-23T01:05:19.163Z,77.13
2022-09-23T01:07:46.261Z,77.22
2022-09-23T01:10:16.363Z,77.34
2022-09-23T01:13:10.537Z,77.25
2022-09-23T01:15:54.371Z,77.13
2022-09-23T01:18:46.972Z,77.35
2022-09-23T01:21:39.687Z,77.09
2022-09-23T01:24:30.378Z,77.46
2022-09-23T01:27:10.501Z,77.46
2022-09-23T01:29:54.214Z,77.49
2022-09-23T01:32:42.377Z,77.46
2022-09-23T01:35:25.704Z,77.80
2022-09-23T01:38:16.989Z,77.56
2022-09-23T01:40:56.220Z,77.68
2022-09-23T01:43:35.937Z,78.23
2022-09-23T01:46:11.091Z,78.13
2022-09-23T01:48:51.273Z,77.80
2022-09-23T01:51:25.936Z,77.68
2022-09-23T01:54:08.508Z,77.79
2022-09-23T01:56:50.110Z,78.36
2022-09-23T01:59:51.965Z,78.31
2022-09-23T02:02:42.169Z,77.59
2022-09-23T02:05:38.191Z,78.11
2022-09-23T02:08:13.779Z,77.63
2022-09-23T02:10:49.500Z,77.70
2022-09-23T02:13:42.858Z,77.56
2022-09-23T02:16:15.639Z,77.42
2022-09-23T02:19:05.126Z,78.24
2022-09-23T02:21:36.103Z,78.17
2022-09-23T02:24:13.796Z,78.36
2022-09-23T02:26:43.931Z,78.50
2022-09-23T02:29:19.909Z,78.01
2022-09-23T02:32:13.756Z,78.40
2022-09-23T02:34:55.246Z,78.19
2022-09-23T02:37:34.840Z,77.96
2022-09-23T02:40:14.274Z,78.12
2022-09-23T02:43:10.800Z,77.76
2022-09-23T02:45:39.026Z,77.83
2022-09-23T02:48:09.760Z,77.55
2022-09-23T02:50:37.501Z,78.06
2022-09-23T02:53:04.669Z,78.06
2022-09-23T02:55:32.295Z,78.17
2022-09-23T02:58:01.567Z,78.42
2022-09-23T03:00:54.016Z,78.21
2022-09-23T03:03:39.371Z,78.30
2022-09-23T03:06:21.816Z,78.40
2022-09-23T03:08:54.857Z,78.23
2022-09-23T03:11:21.767Z,78.67
2022-09-23T03:14:17.075Z,78.37
2022-09-23T03:16:58.390Z,78.45
2022-09-23T03:19:24.703Z,78.46
2022-09-23T03:22:01.223Z,78.82
2022-09-23T03:24:34.719Z,79.29
2022-09-23T03:27:05.454Z,78.80
2022-09-23T03:29:36.656Z,78.82
2022-09-23T03:32:05.115Z,78.99
2022-09-23T03:34:36.036Z,78.63
2022-09-23T03:37:27.094Z,78.81
2022-09-23T03:40:01.831Z,78.37
2022-09-23T03:42:31.559Z,78.98
2022-09-23T03:44:58.867Z,79.21
2022-09-23T03:47:27.134Z,79.13
2022-09-23T03:49:54.051Z,78.69
2022-09-23T03:52:25.378Z,79.44
2022-09-23T03:54:52.262Z,78.95
2022-09-23T03:57:22.167Z,79.33
2022-09-23T03:59:50.695Z,79.59
2022-09-23T04:02:18.891Z,79.35
2022-09-23T04:04:45.376Z,79.32
2022-09-23T04:07:12.750Z,79.68
2022-09-23T04:09:39.620Z,79.30
2022-09-23T04:12:06.684Z,79.67
2022-09-23T04:14:33.280Z,79.42
2022-09-23T04:16:59.783Z,79.39
2022-09-23T04:19:26.156Z,79.45
2022-09-23T04:21:52.690Z,79.52
2022-09-23T04:24:19.165Z,79.62
2022-09-23T04:26:45.715Z,79.21
2022-09-23T04:29:12.149Z,79.34
2022-09-23T04:31:38.717Z,79.54
2022-09-23T04:34:05.268Z,79.44
2022-09-23T04:36:31.843Z,79.15
2022-09-23T04:38:58.363Z,79.29
2022-09-23T04:41:24.780Z,79.50
2022-09-23T04:43:51.176Z,79.66
2022-09-23T04:46:17.885Z,80.12
2022-09-23T04:48:44.530Z,79.92
2022-09-23T04:51:16.905Z,80.04
2022-09-23T04:53:45.605Z,79.85
2022-09-23T04:56:15.179Z,79.93
2022-09-23T04:58:42.379Z,80.25
2022-09-23T05:01:10.362Z,80.29
2022-09-23T05:03:37.626Z,80.13
2022-09-23T05:06:04.868Z,80.38
2022-09-23T05:08:31.456Z,80.04
2022-09-23T05:10:59.461Z,79.98
2022-09-23T05:13:26.256Z,80.20
2022-09-23T05:16:08.374Z,80.24
2022-09-23T05:18:36.246Z,80.27
2022-09-23T05:21:03.432Z,80.16
2022-09-23T05:23:30.649Z,80.63
2022-09-23T05:26:02.320Z,80.37
2022-09-23T05:28:32.492Z,80.44
2022-09-23T05:31:20.637Z,80.70
2022-09-23T05:33:52.993Z,80.52
2022-09-23T05:36:21.430Z,81.20
2022-09-23T05:38:50.140Z,80.91
2022-09-23T05:41:18.556Z,81.10
2022-09-23T05:43:45.281Z,81.17
2022-09-23T05:46:14.628Z,81.36
2022-09-23T05:48:42.384Z,81.40
2022-09-23T05:51:14.085Z,81.79
2022-09-23T05:53:41.605Z,81.96
2022-09-23T05:56:08.179Z,81.46
2022-09-23T05:58:35.619Z,81.56
2022-09-23T06:01:09.270Z,81.40
2022-09-23T06:03:35.835Z,81.05
2022-09-23T06:06:02.381Z,81.55
2022-09-23T06:08:28.888Z,81.37
2022-09-23T06:10:56.289Z,81.19
2022-09-23T06:13:22.749Z,81.34
2022-09-23T06:15:49.126Z,81.24
2022-09-23T06:18:15.636Z,81.24
2022-09-23T06:20:41.997Z,81.64
2022-09-23T06:23:11.464Z,81.62
2022-09-23T06:25:40.677Z,81.54
2022-09-23T06:28:10.744Z,81.83
2022-09-23T06:30:37.264Z,81.94
2022-09-23T06:33:03.661Z,82.51
2022-09-23T06:35:32.447Z,82.54
2022-09-23T06:37:59.180Z,82.02
2022-09-23T06:40:25.691Z,82.13
2022-09-23T06:42:59.728Z,82.33
2022-09-23T06:45:27.222Z,82.53
2022-09-23T06:47:58.237Z,82.40
2022-09-23T06:50:26.405Z,82.84
2022-09-23T06:52:56.802Z,82.57
2022-09-23T06:55:25.138Z,82.16
2022-09-23T06:57:51.526Z,81.76
2022-09-23T07:00:18.363Z,81.70
2022-09-23T07:02:44.972Z,80.92
2022-09-23T07:05:12.211Z,81.52
2022-09-23T07:07:39.335Z,80.92
2022-09-23T07:10:06.613Z,80.64
2022-09-23T07:12:33.990Z,79.40
2022-09-23T07:15:00.511Z,78.49
2022-09-23T07:17:27.679Z,77.31
2022-09-23T07:19:55.064Z,76.57
2022-09-23T07:22:25.656Z,76.05
2022-09-23T07:24:56.004Z,76.07
2022-09-23T07:27:27.083Z,74.56
2022-09-23T07:29:54.791Z,73.41
2022-09-23T07:32:22.846Z,72.35
2022-09-23T07:34:49.936Z,71.83
2022-09-23T07:37:17.794Z,71.15
2022-09-23T07:39:45.480Z,70.44
2022-09-23T07:42:13.184Z,69.13
2022-09-23T07:44:43.210Z,68.86
2022-09-23T07:47:09.779Z,68.46
2022-09-23T07:49:36.644Z,68.41
2022-09-23T07:52:04.878Z,68.70
2022-09-23T07:54:31.826Z,68.85
2022-09-23T07:56:59.468Z,66.82
2022-09-23T07:59:26.951Z,64.96
2022-09-23T08:01:54.771Z,64.57
2022-09-23T08:04:30.531Z,65.00
2022-09-23T08:07:03.137Z,63.69
2022-09-23T08:09:33.504Z,61.49
2022-09-23T08:12:01.107Z,60.16
2022-09-23T08:14:27.513Z,61.64
2022-09-23T08:16:54.140Z,61.73
2022-09-23T08:19:20.779Z,62.29
2022-09-23T08:21:47.527Z,63.25
2022-09-23T08:24:16.930Z,62.31
2022-09-23T08:26:45.044Z,58.62
2022-09-23T08:29:16.615Z,57.23
2022-09-23T08:31:43.664Z,58.61
2022-09-23T08:34:10.988Z,58.88
2022-09-23T08:36:38.099Z,57.31
2022-09-23T08:39:05.944Z,57.25
2022-09-23T08:42:02.172Z,58.00
2022-09-23T08:44:50.861Z,57.83
2022-09-23T08:47:20.462Z,53.37
2022-09-23T08:50:06.028Z,52.88
2022-09-23T08:52:42.955Z,50.97
2022-09-23T08:55:14.976Z,51.87
2022-09-23T08:58:25.539Z,52.38
2022-09-23T09:01:22.883Z,54.00
2022-09-23T09:03:51.937Z,54.62
2022-09-23T09:06:51.852Z,55.14
2022-09-23T09:09:25.598Z,56.09
2022-09-23T09:12:03.915Z,55.80
2022-09-23T09:14:37.993Z,56.61
2022-09-23T09:17:13.937Z,57.66
2022-09-23T09:19:53.515Z,57.80
2022-09-23T09:22:41.971Z,57.28
2022-09-23T09:25:24.190Z,57.68
2022-09-23T09:27:52.517Z,58.37
2022-09-23T09:30:19.727Z,58.80
2022-09-23T09:32:59.158Z,58.61
2022-09-23T09:35:37.833Z,57.95
2022-09-23T09:38:06.796Z,58.43
2022-09-23T09:40:35.053Z,58.19
2022-09-23T09:43:05.711Z,58.43
2022-09-23T09:46:01.525Z,59.29
2022-09-23T09:48:38.684Z,58.93
2022-09-23T09:51:25.228Z,58.48
2022-09-23T09:53:52.728Z,58.80
2022-09-23T09:56:32.723Z,58.29
2022-09-23T09:59:01.935Z,58.59
2022-09-23T10:01:33.029Z,57.72
2022-09-23T10:04:03.674Z,55.50
2022-09-23T10:06:32.987Z,56.16
2022-09-23T10:09:04.373Z,55.51
2022-09-23T10:11:32.328Z,56.83
2022-09-23T10:14:13.470Z,55.97
2022-09-23T10:16:41.683Z,57.03
2022-09-23T10:19:28.578Z,56.25
2022-09-23T10:22:00.335Z,55.53
2022-09-23T10:24:30.450Z,56.52
2022-09-23T10:27:01.808Z,53.92
2022-09-23T10:29:39.831Z,54.71
2022-09-23T10:32:26.939Z,53.59
2022-09-23T10:34:57.115Z,54.00
2022-09-23T10:37:40.949Z,54.76
2022-09-23T10:40:45.740Z,52.94
2022-09-23T10:43:54.466Z,54.01
2022-09-23T10:46:41.299Z,53.88
2022-09-23T10:49:26.286Z,53.65
2022-09-23T10:52:18.183Z,54.13
2022-09-23T10:55:11.558Z,54.99
2022-09-23T10:57:57.670Z,55.48
2022-09-23T11:01:02.634Z,56.14
2022-09-23T11:03:38.569Z,56.47
2022-09-23T11:06:35.663Z,55.50
2022-09-23T11:09:24.276Z,56.35
2022-09-23T11:12:06.700Z,55.70
2022-09-23T11:14:38.885Z,56.69
2022-09-23T11:17:41.304Z,57.32
2022-09-23T11:20:09.395Z,57.78
2022-09-23T11:22:48.010Z,57.40
2022-09-23T11:25:34.422Z,56.37
2022-09-23T11:28:20.358Z,56.03
2022-09-23T11:31:28.277Z,55.71
2022-09-23T11:34:01.612Z,55.88
2022-09-23T11:36:34.836Z,56.49
2022-09-23T11:39:10.225Z,56.84
2022-09-23T11:41:39.548Z,56.64
2022-09-23T11:44:15.326Z,56.97
2022-09-23T11:46:54.572Z,55.53
2022-09-23T11:49:40.104Z,56.43
2022-09-23T11:52:19.596Z,55.03
2022-09-23T11:54:51.949Z,54.85
2022-09-23T11:57:45.502Z,54.76
2022-09-23T12:00:26.469Z,54.50
2022-09-23T12:03:18.408Z,54.05
2022-09-23T12:05:47.586Z,52.61
2022-09-23T12:08:29.253Z,54.40
2022-09-23T12:10:58.644Z,55.05
2022-09-23T12:13:43.959Z,53.15
2022-09-23T12:16:43.840Z,52.69
2022-09-23T12:19:47.311Z,51.46
2022-09-23T12:22:54.408Z,52.06
2022-09-23T12:25:46.509Z,52.97
2022-09-23T12:28:20.925Z,52.80
2022-09-23T12:30:49.796Z,52.32
2022-09-23T12:33:38.892Z,53.32
2022-09-23T12:36:08.262Z,52.20
2022-09-23T12:38:38.176Z,54.20
2022-09-23T12:41:23.910Z,54.06
2022-09-23T12:43:57.603Z,52.84
2022-09-23T12:46:27.787Z,53.70
2022-09-23T12:48:57.239Z,53.93
2022-09-23T12:51:25.861Z,54.10
2022-09-23T12:53:59.636Z,53.16
2022-09-23T12:56:51.739Z,52.89
2022-09-23T12:59:27.582Z,53.17
2022-09-23T13:01:55.272Z,53.70
2022-09-23T13:05:00.122Z,51.79
2022-09-23T13:07:31.038Z,51.06
2022-09-23T13:10:18.616Z,52.25
2022-09-23T13:12:47.258Z,51.82
2022-09-23T13:15:30.141Z,51.39
2022-09-23T13:18:18.376Z,51.87
2022-09-23T13:20:46.924Z,51.68
2022-09-23T13:23:29.191Z,52.17
2022-09-23T13:26:10.680Z,52.27
2022-09-23T13:28:58.543Z,52.62
2022-09-23T13:31:25.459Z,52.29
2022-09-23T13:34:01.131Z,52.33
2022-09-23T13:36:27.563Z,52.72
2022-09-23T13:39:13.932Z,53.05
2022-09-23T13:41:42.223Z,53.49
2022-09-23T13:44:20.316Z,53.32
2022-09-23T13:46:53.572Z,53.66
2022-09-23T13:49:22.181Z,53.00
2022-09-23T13:51:48.561Z,52.77
2022-09-23T13:54:32.086Z,53.42
2022-09-23T13:56:58.766Z,53.57
2022-09-23T13:59:30.171Z,53.87
2022-09-23T14:02:11.311Z,53.93
2022-09-23T14:04:38.348Z,53.94
2022-09-23T14:07:10.965Z,52.88
2022-09-23T14:09:46.035Z,53.43
2022-09-23T14:12:13.197Z,52.78
2022-09-23T14:14:42.150Z,53.46
2022-09-23T14:17:10.233Z,53.09
2022-09-23T14:19:37.101Z,53.28
2022-09-23T14:22:03.801Z,53.00
2022-09-23T14:24:33.442Z,53.63
2022-09-23T14:27:32.881Z,53.39
2022-09-23T14:30:02.590Z,54.55
2022-09-23T14:32:30.055Z,53.59
2022-09-23T14:35:06.651Z,53.85
2022-09-23T14:37:55.007Z,55.29
2022-09-23T14:40:32.759Z,54.44
2022-09-23T14:43:06.279Z,55.41
2022-09-23T14:45:35.674Z,55.00
2022-09-23T14:48:07.308Z,55.25
2022-09-23T14:50:39.402Z,56.01
2022-09-23T14:53:26.942Z,56.40
2022-09-23T14:56:08.176Z,56.82
2022-09-23T14:58:52.054Z,56.94
2022-09-23T15:01:39.737Z,57.90
2022-09-23T15:04:11.016Z,58.29
2022-09-23T15:06:39.549Z,58.83
2022-09-23T15:09:09.306Z,59.38
2022-09-23T15:11:36.149Z,59.48
2022-09-23T15:14:33.194Z,60.05
2022-09-23T15:16:50.150Z,60.15
2022-09-23T15:19:19.981Z,60.48
2022-09-23T15:21:47.072Z,60.80
2022-09-23T15:24:36.103Z,60.95
2022-09-23T15:27:09.437Z,61.27
2022-09-23T15:29:37.369Z,61.54
2022-09-23T15:32:03.840Z,61.95
2022-09-23T15:34:31.886Z,61.98
2022-09-23T15:36:58.454Z,62.21
2022-09-23T15:39:35.508Z,62.30
2022-09-23T15:42:02.526Z,62.87
2022-09-23T15:44:29.858Z,63.30
2022-09-23T15:47:00.107Z,63.48
2022-09-23T15:49:34.140Z,64.05
2022-09-23T15:52:02.393Z,64.04
2022-09-23T15:54:29.682Z,63.90
2022-09-23T15:57:00.549Z,64.27
2022-09-23T15:59:28.648Z,65.09
2022-09-23T16:01:56.863Z,65.41
2022-09-23T16:04:23.666Z,65.46
2022-09-23T16:06:50.406Z,66.63
2022-09-23T16:09:16.814Z,66.47
2022-09-23T16:11:46.041Z,66.90
2022-09-23T16:14:19.151Z,67.14
2022-09-23T16:16:47.985Z,67.45
2022-09-23T16:19:16.178Z,67.64
2022-09-23T16:21:43.281Z,68.31
2022-09-23T16:24:16.856Z,68.73
2022-09-23T16:26:44.385Z,69.53
2022-09-23T16:29:11.752Z,70.12
2022-09-23T16:31:38.608Z,70.89
2022-09-23T16:34:05.681Z,71.78
2022-09-23T16:36:34.105Z,72.42
2022-09-23T16:39:04.142Z,73.27
2022-09-23T16:41:34.422Z,74.12
2022-09-23T16:44:02.589Z,74.45
2022-09-23T16:46:29.669Z,74.84
2022-09-23T16:48:57.719Z,75.64
2022-09-23T16:51:40.272Z,75.91
2022-09-23T16:54:11.521Z,76.76
2022-09-23T16:56:44.425Z,76.99
2022-09-23T16:59:12.829Z,77.40
2022-09-23T17:01:57.927Z,77.79
2022-09-23T17:04:24.415Z,78.14
2022-09-23T17:06:52.507Z,78.37
2022-09-23T17:09:21.084Z,78.97
2022-09-23T17:11:56.445Z,79.53
2022-09-23T17:14:23.073Z,79.89
2022-09-23T17:16:49.646Z,80.03
2022-09-23T17:19:16.163Z,80.52
2022-09-23T17:21:42.702Z,80.56
2022-09-23T17:24:09.816Z,81.22
2022-09-23T17:26:36.188Z,81.13
2022-09-23T17:29:02.667Z,81.43
2022-09-23T17:31:30.716Z,81.66
2022-09-23T17:33:57.274Z,81.88
2022-09-23T17:36:23.890Z,82.25
2022-09-23T17:38:53.553Z,82.34
2022-09-23T17:41:20.712Z,82.62
2022-09-23T17:43:48.507Z,82.58
2022-09-23T17:46:18.806Z,82.33
2022-09-23T17:48:46.901Z,82.61
2022-09-23T17:51:15.751Z,82.26
2022-09-23T17:53:45.223Z,82.69
2022-09-23T17:56:17.686Z,82.75
2022-09-23T17:58:45.213Z,82.85
2022-09-23T18:01:14.497Z,82.70
2022-09-23T18:03:44.244Z,83.04
2022-09-23T18:06:10.788Z,83.20
2022-09-23T18:08:37.742Z,83.46
2022-09-23T18:11:26.925Z,83.53
2022-09-23T18:14:05.460Z,84.06
2022-09-23T18:16:36.078Z,83.90
2022-09-23T18:19:04.526Z,83.92
2022-09-23T18:21:33.452Z,83.47
2022-09-23T18:26:47.537Z,83.43
2022-09-23T18:29:15.753Z,83.29
2022-09-23T18:31:44.408Z,83.54
2022-09-23T18:34:12.914Z,83.82
2022-09-23T18:36:40.060Z,83.96
2022-09-23T18:39:07.059Z,83.99
2022-09-23T18:41:34.307Z,83.70
2022-09-23T18:44:01.444Z,83.72
2022-09-23T18:46:29.643Z,83.83
2022-09-23T18:49:15.230Z,84.26
2022-09-23T18:52:08.042Z,84.83
2022-09-23T18:54:34.586Z,85.29
2022-09-23T18:57:01.358Z,85.63
2022-09-23T18:59:29.646Z,86.04
2022-09-23T19:01:57.132Z,86.28
2022-09-23T19:04:25.403Z,86.42
2022-09-23T19:06:53.561Z,86.05
2022-09-23T19:09:19.904Z,86.36
2022-09-23T19:11:46.639Z,86.83
2022-09-23T19:14:13.776Z,87.02
2022-09-23T19:16:40.992Z,86.91
2022-09-23T19:19:08.151Z,86.84
2022-09-23T19:21:35.178Z,87.05
2022-09-23T19:24:04.510Z,87.15
2022-09-23T19:26:39.641Z,87.14
2022-09-23T19:29:13.065Z,87.14
2022-09-23T19:31:40.883Z,87.37
2022-09-23T19:34:19.262Z,87.46
2022-09-23T19:36:47.731Z,87.58
2022-09-23T19:39:18.520Z,87.73
2022-09-23T19:41:46.029Z,87.63
2022-09-23T19:44:13.073Z,87.55
2022-09-23T19:46:42.853Z,87.69
2022-09-23T19:49:10.437Z,87.86
2022-09-23T19:51:38.652Z,87.67
2022-09-23T19:54:07.360Z,87.71
2022-09-23T19:56:34.515Z,87.93
2022-09-23T19:59:02.942Z,88.16
2022-09-23T20:01:30.694Z,88.11
2022-09-23T20:03:57.112Z,88.38
2022-09-23T20:06:23.663Z,88.18
2022-09-23T20:08:50.207Z,88.05
2022-09-23T20:11:18.050Z,88.04
2022-09-23T20:13:48.819Z,88.45
2022-09-23T20:16:19.780Z,88.39
2022-09-23T20:18:51.523Z,88.43
2022-09-23T20:21:18.291Z,88.64
2022-09-23T20:23:44.908Z,88.48
2022-09-23T20:26:29.609Z,88.67
2022-09-23T20:28:55.985Z,88.58
2022-09-23T20:31:23.333Z,88.67
2022-09-23T20:33:51.502Z,88.92
2022-09-23T20:36:17.960Z,88.84
2022-09-23T20:38:44.316Z,88.66
2022-09-23T20:41:10.836Z,88.95
2022-09-23T20:43:37.263Z,89.04
2022-09-23T20:46:05.311Z,89.24
2022-09-23T20:48:32.044Z,89.36
2022-09-23T20:51:02.882Z,89.33
2022-09-23T20:53:29.530Z,89.18
2022-09-23T20:55:58.282Z,89.39
2022-09-23T20:58:30.287Z,89.55
2022-09-23T21:01:04.454Z,89.37
2022-09-23T21:03:32.041Z,89.51
2022-09-23T21:06:05.910Z,89.22
2022-09-23T21:08:33.655Z,89.26
2022-09-23T21:11:05.004Z,89.43
2022-09-23T21:13:33.710Z,89.36
2022-09-23T21:16:09.988Z,89.32
2022-09-23T21:18:37.961Z,89.25
2022-09-23T21:21:05.936Z,89.31
2022-09-23T21:23:38.551Z,89.37
2022-09-23T21:26:13.852Z,89.36
2022-09-23T21:28:45.741Z,89.42
2022-09-23T21:31:22.378Z,89.57
2022-09-23T21:33:53.381Z,89.70
2022-09-23T21:36:20.439Z,89.50
2022-09-23T21:38:46.977Z,89.89
2022-09-23T21:41:13.646Z,89.56
2022-09-23T21:43:40.592Z,89.71
2022-09-23T21:46:09.777Z,89.77
2022-09-23T21:48:41.067Z,89.21
2022-09-23T21:51:14.190Z,89.64
2022-09-23T21:53:42.206Z,89.34
2022-09-23T21:56:11.806Z,89.68
2022-09-23T21:58:39.645Z,89.85
2022-09-23T22:01:17.988Z,89.73
2022-09-23T22:03:49.993Z,89.68
2022-09-23T22:06:21.235Z,89.72
2022-09-23T22:08:50.158Z,89.52
2022-09-23T22:11:37.692Z,89.66
2022-09-23T22:14:07.201Z,90.16
2022-09-23T22:16:33.943Z,89.88
2022-09-23T22:19:07.012Z,89.82
2022-09-23T22:21:36.673Z,89.90
2022-09-23T22:24:04.968Z,89.93
2022-09-23T22:26:34.037Z,90.01
2022-09-23T22:29:19.080Z,90.02
2022-09-23T22:32:04.305Z,89.84
2022-09-23T22:34:49.197Z,90.08
2022-09-23T22:37:19.425Z,90.22
2022-09-23T22:39:46.354Z,89.77
2022-09-23T22:42:16.199Z,89.69
2022-09-23T22:44:42.836Z,90.08
2022-09-23T22:47:10.212Z,89.94
2022-09-23T22:49:37.209Z,89.93
2022-09-23T22:52:08.049Z,90.32
2022-09-23T22:54:35.438Z,90.42
2022-09-23T22:57:05.159Z,90.29
2022-09-23T22:59:31.565Z,90.27
2022-09-23T23:02:00.171Z,90.49
2022-09-23T23:04:27.126Z,90.48
2022-09-23T23:06:53.690Z,90.46
2022-09-23T23:09:20.217Z,90.90
2022-09-23T23:11:47.101Z,90.40
2022-09-23T23:14:16.344Z,90.76
2022-09-23T23:16:45.094Z,90.50
2022-09-23T23:19:13.996Z,90.67
2022-09-23T23:21:43.511Z,90.61
2022-09-23T23:24:18.458Z,90.93
2022-09-23T23:26:45.545Z,90.87
2022-09-23T23:29:13.563Z,90.58
2022-09-23T23:31:40.921Z,90.89
2022-09-23T23:34:11.947Z,90.77
2022-09-23T23:36:39.390Z,90.57
2022-09-23T23:39:05.793Z,90.61
2022-09-23T23:41:32.186Z,90.88
2022-09-23T23:44:00.438Z,91.01
2022-09-23T23:46:29.146Z,91.02
2022-09-23T23:48:56.814Z,91.13
2022-09-23T23:51:26.277Z,90.95
2022-09-23T23:53:53.923Z,91.09
2022-09-23T23:56:24.927Z,90.92
2022-09-23T23:58:59.729Z,91.19
